Time;durP1;ratioP1;P1;durP2;ratioP2;P2;SDS_P1;SDS_P2;PMS_P1;PMS_P2;Temp;Humidity;BMP_temperature;BMP_pressure;BME280_temperature;BME280_humidity;BME280_pressure;Samples;Min_cycle;Max_cycle;Signal;HPM_P1;HPM_P2
2021/04/06 00:01:20;;;;;;;;;;;24.40;50.70;;;;;;5113031;28;19916;-54
2021/04/06 00:03:47;;;;;;;;;;;24.40;50.60;;;;;;5113527;28;20694;-54
2021/04/06 00:06:13;;;;;;;;;;;24.40;50.70;;;;;;5113286;28;20640;-55
2021/04/06 00:08:40;;;;;;;;;;;24.40;50.60;;;;;;5094904;28;19919;-55
2021/04/06 00:11:07;;;;;;;;;;;24.40;50.60;;;;;;5075913;28;19912;-55
2021/04/06 00:13:35;;;;;;;;;;;24.40;50.60;;;;;;5122688;27;19935;-55
2021/04/06 00:16:03;;;;;;;;;;;24.40;50.60;;;;;;5113106;27;19919;-55
2021/04/06 00:18:29;;;;;;;;;;;24.40;50.60;;;;;;5111978;28;20393;-55
2021/04/06 00:20:58;;;;;;;;;;;24.40;50.60;;;;;;5113146;28;19945;-55
2021/04/06 00:23:25;;;;;;;;;;;24.30;50.60;;;;;;5112497;28;20526;-55
2021/04/06 00:25:51;;;;;;;;;;;24.30;50.50;;;;;;5112710;28;19919;-54
2021/04/06 00:28:19;;;;;;;;;;;24.30;50.50;;;;;;5112637;28;19911;-54
2021/04/06 00:30:48;;;;;;;;;;;24.30;50.60;;;;;;5112332;28;19920;-56
2021/04/06 00:33:19;;;;;;;;;;;24.30;50.50;;;;;;5112911;28;19968;-55
2021/04/06 00:35:50;;;;;;;;;;;24.30;50.50;;;;;;5112345;28;19964;-55
2021/04/06 00:38:17;;;;;;;;;;;24.30;50.50;;;;;;5112793;28;19912;-55
2021/04/06 00:40:47;;;;;;;;;;;24.30;50.50;;;;;;5094450;28;20372;-55
2021/04/06 00:43:13;;;;;;;;;;;24.30;50.50;;;;;;5093813;28;19951;-55
2021/04/06 00:45:42;;;;;;;;;;;24.30;50.50;;;;;;5111921;28;19923;-55
2021/04/06 00:48:17;;;;;;;;;;;24.30;50.50;;;;;;5112487;28;19935;-55
2021/04/06 00:51:15;;;;;;;;;;;24.20;50.50;;;;;;5111587;28;19919;-55
2021/04/06 00:53:57;;;;;;;;;;;24.30;50.50;;;;;;5024831;28;19914;-55
2021/04/06 00:56:24;;;;;;;;;;;24.20;50.50;;;;;;5012350;28;19921;-55
2021/04/06 00:58:54;;;;;;;;;;;24.20;50.50;;;;;;5012574;28;19909;-55
2021/04/06 01:01:26;;;;;;;;;;;24.20;50.50;;;;;;5030770;28;19912;-55
2021/04/06 01:03:54;;;;;;;;;;;24.20;50.50;;;;;;5016885;28;20000;-55
2021/04/06 01:06:19;;;;;;;;;;;24.20;50.50;;;;;;5029854;28;19913;-55
2021/04/06 01:08:45;;;;;;;;;;;24.20;50.50;;;;;;5029746;28;19920;-55
2021/04/06 01:11:11;;;;;;;;;;;24.20;50.50;;;;;;5013488;28;20004;-52
2021/04/06 01:13:37;;;;;;;;;;;24.20;50.50;;;;;;5030042;28;19977;-53
2021/04/06 01:16:03;;;;;;;;;;;24.20;50.50;;;;;;5030121;28;19939;-53
2021/04/06 01:18:29;;;;;;;;;;;24.20;50.50;;;;;;5013597;28;19986;-53
2021/04/06 01:20:55;;;;;;;;;;;24.20;50.50;;;;;;5013304;28;19918;-53
2021/04/06 01:23:22;;;;;;;;;;;24.20;50.40;;;;;;5030127;28;19968;-53
2021/04/06 01:25:53;;;;;;;;;;;24.20;50.50;;;;;;5030017;28;20449;-52
2021/04/06 01:28:20;;;;;;;;;;;24.10;50.40;;;;;;5039753;28;20294;-53
2021/04/06 01:30:47;;;;;;;;;;;24.10;50.30;;;;;;5116968;28;19934;-53
2021/04/06 01:33:14;;;;;;;;;;;24.10;50.40;;;;;;5116859;28;19955;-52
2021/04/06 01:35:59;;;;;;;;;;;24.10;50.40;;;;;;5116751;28;20375;-52
2021/04/06 01:38:27;;;;;;;;;;;24.10;50.40;;;;;;5116648;28;19977;-53
2021/04/06 01:40:54;;;;;;;;;;;24.10;50.40;;;;;;5116479;28;19962;-52
2021/04/06 01:43:22;;;;;;;;;;;24.10;50.40;;;;;;5116483;28;19918;-54
2021/04/06 01:45:53;;;;;;;;;;;24.10;50.40;;;;;;5116724;28;20007;-52
2021/04/06 01:48:19;;;;;;;;;;;24.00;50.40;;;;;;5116441;28;19994;-52
2021/04/06 01:50:49;;;;;;;;;;;24.10;50.40;;;;;;5116355;28;20281;-52
2021/04/06 01:53:16;;;;;;;;;;;24.00;50.30;;;;;;5098137;28;20289;-53
2021/04/06 01:55:46;;;;;;;;;;;24.00;50.30;;;;;;5107146;28;19916;-53
2021/04/06 01:58:12;;;;;;;;;;;24.00;50.30;;;;;;5077948;28;19968;-53
2021/04/06 02:03:14;;;;;;;;;;;24.00;50.30;;;;;;5136771;27;19916;-52
2021/04/06 02:05:42;;;;;;;;;;;24.00;50.30;;;;;;5136856;27;20369;-52
2021/04/06 02:08:12;;;;;;;;;;;24.00;50.30;;;;;;5136725;27;20264;-53
2021/04/06 02:10:38;;;;;;;;;;;24.00;50.30;;;;;;5118105;27;19945;-53
2021/04/06 02:13:09;;;;;;;;;;;24.00;50.30;;;;;;5136423;27;19908;-52
2021/04/06 02:15:35;;;;;;;;;;;24.00;50.30;;;;;;5117842;27;20365;-52
2021/04/06 02:18:01;;;;;;;;;;;24.00;50.30;;;;;;5136491;27;20329;-52
2021/04/06 02:20:26;;;;;;;;;;;24.00;50.30;;;;;;5136786;27;19907;-53
2021/04/06 02:22:57;;;;;;;;;;;23.90;50.20;;;;;;5136267;27;19915;-52
2021/04/06 02:25:22;;;;;;;;;;;24.00;50.30;;;;;;5136132;27;20002;-53
2021/04/06 02:27:48;;;;;;;;;;;23.90;50.20;;;;;;5136410;27;19999;-53
2021/04/06 02:30:15;;;;;;;;;;;24.00;50.20;;;;;;5136223;27;20349;-52
2021/04/06 02:32:41;;;;;;;;;;;23.90;50.10;;;;;;5136293;27;19919;-55
2021/04/06 02:35:08;;;;;;;;;;;23.90;50.10;;;;;;5136035;27;19911;-55
2021/04/06 02:37:34;;;;;;;;;;;23.90;50.20;;;;;;5117682;27;19911;-55
2021/04/06 02:40:07;;;;;;;;;;;23.90;50.20;;;;;;5135288;27;19907;-55
2021/04/06 02:42:40;;;;;;;;;;;23.90;50.20;;;;;;5135446;27;20258;-55
2021/04/06 02:45:17;;;;;;;;;;;23.90;50.20;;;;;;5135838;27;20322;-55
2021/04/06 02:47:44;;;;;;;;;;;23.90;50.20;;;;;;5135613;27;19911;-55
2021/04/06 02:50:11;;;;;;;;;;;23.90;50.20;;;;;;5135538;27;19908;-55
2021/04/06 02:52:37;;;;;;;;;;;23.80;50.20;;;;;;5135615;27;19919;-55
2021/04/06 02:55:04;;;;;;;;;;;23.90;50.20;;;;;;5131474;27;19912;-55
2021/04/06 02:57:30;;;;;;;;;;;23.90;50.20;;;;;;5115002;28;19907;-55
2021/04/06 02:59:57;;;;;;;;;;;23.80;50.10;;;;;;5114697;28;19964;-55
2021/04/06 03:02:23;;;;;;;;;;;23.80;50.10;;;;;;5115090;28;19912;-54
2021/04/06 03:04:49;;;;;;;;;;;23.80;50.10;;;;;;5114551;28;19918;-55
2021/04/06 03:07:25;;;;;;;;;;;23.80;50.20;;;;;;5114932;28;20387;-55
2021/04/06 03:09:57;;;;;;;;;;;23.80;50.10;;;;;;5114656;28;20358;-55
2021/04/06 03:12:30;;;;;;;;;;;23.80;50.10;;;;;;5114471;28;19918;-55
2021/04/06 03:14:57;;;;;;;;;;;23.80;50.10;;;;;;5114512;28;19911;-55
2021/04/06 03:17:23;;;;;;;;;;;23.80;50.10;;;;;;5114471;28;20003;-55
2021/04/06 03:19:55;;;;;;;;;;;23.80;50.10;;;;;;5114616;28;19911;-55
2021/04/06 03:22:21;;;;;;;;;;;23.80;50.10;;;;;;5114562;28;19912;-55
2021/04/06 03:24:48;;;;;;;;;;;23.80;50.10;;;;;;5113940;28;19953;-55
2021/04/06 03:27:13;;;;;;;;;;;23.70;50.00;;;;;;5114091;28;20028;-55
2021/04/06 03:29:39;;;;;;;;;;;23.70;50.00;;;;;;5114172;28;19926;-55
2021/04/06 03:32:05;;;;;;;;;;;23.70;50.00;;;;;;5114341;28;19912;-54
2021/04/06 03:34:33;;;;;;;;;;;23.70;50.00;;;;;;5114101;28;19962;-54
2021/04/06 03:37:00;;;;;;;;;;;23.70;50.00;;;;;;5078537;28;19947;-55
2021/04/06 03:39:26;;;;;;;;;;;23.70;50.00;;;;;;5113781;28;20345;-55
2021/04/06 03:41:53;;;;;;;;;;;23.70;50.00;;;;;;5114109;28;19935;-55
2021/04/06 03:44:24;;;;;;;;;;;23.70;50.00;;;;;;5113826;28;20361;-55
2021/04/06 03:46:54;;;;;;;;;;;23.70;50.00;;;;;;5114143;28;19911;-55
2021/04/06 03:49:27;;;;;;;;;;;23.70;50.00;;;;;;5119731;27;19919;-55
2021/04/06 03:51:55;;;;;;;;;;;23.70;50.00;;;;;;5134237;27;19911;-54
2021/04/06 03:54:28;;;;;;;;;;;23.70;50.00;;;;;;5134312;27;20369;-54
2021/04/06 03:56:54;;;;;;;;;;;23.70;49.90;;;;;;5096238;28;20041;-54
2021/04/06 03:59:25;;;;;;;;;;;23.70;49.90;;;;;;5113949;28;20348;-55
2021/04/06 04:01:51;;;;;;;;;;;23.70;50.00;;;;;;5113297;28;19923;-55
2021/04/06 04:04:17;;;;;;;;;;;23.70;49.90;;;;;;5113941;28;19916;-55
2021/04/06 04:06:43;;;;;;;;;;;23.70;49.90;;;;;;5113664;28;19908;-55
2021/04/06 04:09:09;;;;;;;;;;;23.60;49.80;;;;;;5113669;28;19918;-54
2021/04/06 04:11:34;;;;;;;;;;;23.60;49.80;;;;;;5113839;28;19934;-54
2021/04/06 04:14:00;;;;;;;;;;;23.60;49.90;;;;;;5113660;28;20658;-54
2021/04/06 04:16:27;;;;;;;;;;;23.60;49.90;;;;;;5113476;28;19923;-54
2021/04/06 04:18:53;;;;;;;;;;;23.60;49.90;;;;;;5113482;28;19994;-55
2021/04/06 04:21:19;;;;;;;;;;;23.60;49.90;;;;;;5095044;28;19962;-55
2021/04/06 04:23:45;;;;;;;;;;;23.60;49.80;;;;;;5094772;28;19955;-54
2021/04/06 04:26:10;;;;;;;;;;;23.60;49.80;;;;;;5113178;28;19937;-54
2021/04/06 04:28:36;;;;;;;;;;;23.60;49.80;;;;;;5094812;28;19912;-54
2021/04/06 04:31:10;;;;;;;;;;;23.60;49.80;;;;;;5113173;28;19908;-55
2021/04/06 04:33:35;;;;;;;;;;;23.60;49.80;;;;;;5113254;28;19911;-54
2021/04/06 04:36:01;;;;;;;;;;;23.60;49.80;;;;;;5113169;28;19919;-54
2021/04/06 04:38:27;;;;;;;;;;;23.60;49.80;;;;;;5112944;28;20380;-54
2021/04/06 04:40:53;;;;;;;;;;;23.60;49.80;;;;;;5113077;28;20335;-54
2021/04/06 04:43:19;;;;;;;;;;;23.60;49.80;;;;;;5112906;28;20281;-55
2021/04/06 04:45:45;;;;;;;;;;;23.60;49.80;;;;;;5113212;28;19963;-55
2021/04/06 04:48:11;;;;;;;;;;;23.60;49.80;;;;;;5113021;28;19912;-55
2021/04/06 04:50:37;;;;;;;;;;;23.60;49.80;;;;;;5113227;28;19907;-55
2021/04/06 04:53:03;;;;;;;;;;;23.60;49.80;;;;;;5112819;28;19912;-55
2021/04/06 04:55:28;;;;;;;;;;;23.60;49.80;;;;;;5112771;28;19913;-54
2021/04/06 04:57:54;;;;;;;;;;;23.60;49.80;;;;;;5112579;28;19907;-55
2021/04/06 05:00:20;;;;;;;;;;;23.60;49.80;;;;;;5112621;28;19912;-55
2021/04/06 05:02:46;;;;;;;;;;;23.50;49.70;;;;;;5094054;28;19912;-55
2021/04/06 05:05:14;;;;;;;;;;;23.50;49.70;;;;;;5115577;28;19916;-55
2021/04/06 05:07:40;;;;;;;;;;;23.50;49.70;;;;;;5098957;28;19919;-54
2021/04/06 05:10:07;;;;;;;;;;;23.50;49.70;;;;;;5116562;28;19912;-55
2021/04/06 05:12:33;;;;;;;;;;;23.50;49.70;;;;;;5083575;28;19916;-55
2021/04/06 05:14:59;;;;;;;;;;;23.50;49.70;;;;;;5113011;28;20252;-55
2021/04/06 05:17:25;;;;;;;;;;;23.50;49.70;;;;;;5116809;28;19912;-52
2021/04/06 05:19:50;;;;;;;;;;;23.50;49.70;;;;;;5117109;28;20389;-53
2021/04/06 05:22:16;;;;;;;;;;;23.50;49.70;;;;;;5098844;28;19988;-52
2021/04/06 05:24:42;;;;;;;;;;;23.50;49.70;;;;;;5116467;28;20600;-53
2021/04/06 05:27:08;;;;;;;;;;;23.50;49.70;;;;;;5116812;28;19912;-53
2021/04/06 05:29:34;;;;;;;;;;;23.50;49.70;;;;;;5098352;28;19919;-53
2021/04/06 05:32:00;;;;;;;;;;;23.40;49.60;;;;;;5109946;27;19912;-52
2021/04/06 05:34:26;;;;;;;;;;;23.50;49.70;;;;;;5096535;28;19912;-53
2021/04/06 05:36:52;;;;;;;;;;;23.40;49.60;;;;;;5116829;27;19926;-53
2021/04/06 05:39:18;;;;;;;;;;;23.40;49.60;;;;;;5126694;27;19916;-55
2021/04/06 05:41:44;;;;;;;;;;;23.40;49.60;;;;;;5116302;28;20387;-52
2021/04/06 05:44:10;;;;;;;;;;;23.40;49.60;;;;;;5115711;28;19916;-55
2021/04/06 05:46:37;;;;;;;;;;;23.50;49.60;;;;;;5097416;28;19912;-55
2021/04/06 05:49:06;;;;;;;;;;;23.40;49.60;;;;;;5097960;28;19908;-55
2021/04/06 05:51:32;;;;;;;;;;;23.40;49.60;;;;;;5097178;28;19912;-55
2021/04/06 05:53:58;;;;;;;;;;;23.40;49.60;;;;;;5097706;28;19919;-56
2021/04/06 05:56:24;;;;;;;;;;;23.40;49.60;;;;;;5116311;28;20361;-55
2021/04/06 05:58:55;;;;;;;;;;;23.40;49.50;;;;;;5114847;28;19943;-55
2021/04/06 06:01:21;;;;;;;;;;;23.40;49.50;;;;;;5115091;28;19919;-55
2021/04/06 06:03:47;;;;;;;;;;;23.40;49.50;;;;;;5115064;28;20440;-54
2021/04/06 06:06:13;;;;;;;;;;;23.40;49.50;;;;;;5115518;27;19999;-54
2021/04/06 06:08:40;;;;;;;;;;;23.40;49.50;;;;;;5113576;27;19927;-54
2021/04/06 06:11:06;;;;;;;;;;;23.40;49.50;;;;;;5115098;28;19912;-52
2021/04/06 06:13:35;;;;;;;;;;;23.30;49.40;;;;;;5116025;28;19961;-52
2021/04/06 06:16:17;;;;;;;;;;;23.40;49.50;;;;;;5115819;28;20285;-55
2021/04/06 06:18:53;;;;;;;;;;;23.40;49.50;;;;;;5097705;28;19916;-53
2021/04/06 06:21:19;;;;;;;;;;;23.30;49.40;;;;;;5115749;28;20254;-52
2021/04/06 06:23:45;;;;;;;;;;;23.40;49.50;;;;;;5097228;28;20000;-53
2021/04/06 06:26:10;;;;;;;;;;;23.30;49.40;;;;;;5115301;28;20364;-52
2021/04/06 06:28:36;;;;;;;;;;;23.30;49.40;;;;;;5115480;28;20001;-52
2021/04/06 06:31:03;;;;;;;;;;;23.30;49.40;;;;;;5096779;28;20372;-52
2021/04/06 06:33:31;;;;;;;;;;;23.30;49.30;;;;;;5097408;28;19919;-52
2021/04/06 06:36:10;;;;;;;;;;;23.30;49.30;;;;;;5097287;28;19911;-52
2021/04/06 06:38:38;;;;;;;;;;;23.30;49.20;;;;;;5115675;28;19912;-52
2021/04/06 06:41:04;;;;;;;;;;;23.30;49.10;;;;;;5115492;28;19919;-53
2021/04/06 06:43:30;;;;;;;;;;;23.30;49.00;;;;;;5115505;28;19915;-52
2021/04/06 06:45:55;;;;;;;;;;;23.30;48.90;;;;;;5115514;28;19912;-52
2021/04/06 06:48:39;;;;;;;;;;;23.30;48.80;;;;;;5115365;28;19916;-52
2021/04/06 06:51:09;;;;;;;;;;;23.30;48.70;;;;;;5115234;28;19954;-52
2021/04/06 06:53:37;;;;;;;;;;;23.30;48.50;;;;;;5096906;28;19912;-52
2021/04/06 06:56:03;;;;;;;;;;;23.30;48.40;;;;;;5115131;28;20257;-53
2021/04/06 06:58:33;;;;;;;;;;;23.20;48.30;;;;;;5096902;28;19916;-52
2021/04/06 07:01:00;;;;;;;;;;;23.20;48.30;;;;;;5096600;28;19999;-53
2021/04/06 07:03:26;;;;;;;;;;;23.20;48.40;;;;;;5096933;28;19935;-53
2021/04/06 07:05:52;;;;;;;;;;;23.30;48.50;;;;;;5115217;28;19964;-52
2021/04/06 07:08:28;;;;;;;;;;;23.20;48.40;;;;;;5115061;28;20254;-52
2021/04/06 07:10:55;;;;;;;;;;;23.20;48.40;;;;;;5114770;28;19911;-52
2021/04/06 07:13:21;;;;;;;;;;;23.20;48.40;;;;;;5115188;28;20400;-52
2021/04/06 07:15:48;;;;;;;;;;;23.20;48.40;;;;;;5115126;28;20258;-52
2021/04/06 07:18:15;;;;;;;;;;;23.30;48.50;;;;;;5114786;28;19914;-51
2021/04/06 07:20:45;;;;;;;;;;;23.20;48.50;;;;;;5114468;28;19939;-53
2021/04/06 07:23:18;;;;;;;;;;;23.30;48.60;;;;;;5096035;28;19922;-52
2021/04/06 07:25:44;;;;;;;;;;;23.30;48.60;;;;;;5103489;28;19926;-52
2021/04/06 07:28:11;;;;;;;;;;;23.30;48.50;;;;;;5093601;28;19912;-53
2021/04/06 07:30:37;;;;;;;;;;;23.30;48.50;;;;;;5094168;28;19935;-52
2021/04/06 07:33:03;;;;;;;;;;;23.30;48.60;;;;;;5092893;28;20003;-52
2021/04/06 07:35:29;;;;;;;;;;;23.30;48.50;;;;;;5093436;28;19991;-52
2021/04/06 07:37:55;;;;;;;;;;;23.40;48.60;;;;;;5093864;28;20295;-52
2021/04/06 07:40:22;;;;;;;;;;;23.40;48.60;;;;;;5094215;28;20285;-53
2021/04/06 07:42:48;;;;;;;;;;;23.40;48.60;;;;;;5094018;28;19912;-53
2021/04/06 07:45:23;;;;;;;;;;;23.40;48.60;;;;;;5093952;28;19924;-53
2021/04/06 07:47:50;;;;;;;;;;;23.40;48.60;;;;;;5093927;28;19957;-52
2021/04/06 07:50:34;;;;;;;;;;;23.50;48.60;;;;;;5094029;28;19919;-52
2021/04/06 07:53:18;;;;;;;;;;;23.50;48.50;;;;;;5093470;28;19916;-52
2021/04/06 07:55:44;;;;;;;;;;;23.50;48.50;;;;;;5093701;28;19965;-52
2021/04/06 07:58:10;;;;;;;;;;;23.50;48.50;;;;;;5075497;28;20264;-52
2021/04/06 08:00:49;;;;;;;;;;;23.60;48.50;;;;;;5094030;28;19965;-52
2021/04/06 08:03:33;;;;;;;;;;;23.60;48.40;;;;;;5093626;28;19912;-53
2021/04/06 08:06:18;;;;;;;;;;;23.60;48.40;;;;;;5093740;28;20019;-52
2021/04/06 08:08:44;;;;;;;;;;;23.60;48.40;;;;;;5075223;28;19912;-53
2021/04/06 08:11:10;;;;;;;;;;;23.60;48.40;;;;;;5093520;28;19934;-53
2021/04/06 08:13:35;;;;;;;;;;;23.60;48.40;;;;;;5093267;28;19915;-53
2021/04/06 08:16:11;;;;;;;;;;;23.70;48.40;;;;;;5093213;28;20010;-54
2021/04/06 08:18:49;;;;;;;;;;;23.70;48.40;;;;;;5074939;28;19922;-53
2021/04/06 08:21:17;;;;;;;;;;;23.70;48.30;;;;;;5074986;28;19912;-53
2021/04/06 08:23:47;;;;;;;;;;;23.70;48.30;;;;;;5074770;28;20046;-53
2021/04/06 08:26:29;;;;;;;;;;;23.70;48.30;;;;;;5093303;28;20262;-53
2021/04/06 08:28:55;;;;;;;;;;;23.80;48.30;;;;;;5075348;28;20254;-53
2021/04/06 08:31:29;;;;;;;;;;;23.80;48.20;;;;;;5092884;28;19955;-53
2021/04/06 08:34:15;;;;;;;;;;;23.90;48.30;;;;;;5092764;28;19912;-53
2021/04/06 08:36:40;;;;;;;;;;;23.90;48.20;;;;;;5092767;28;19935;-53
2021/04/06 08:39:06;;;;;;;;;;;23.90;48.20;;;;;;5092227;28;20338;-53
2021/04/06 08:41:34;;;;;;;;;;;23.90;48.10;;;;;;5092876;28;19919;-53
2021/04/06 08:44:01;;;;;;;;;;;24.00;48.10;;;;;;5092904;28;20388;-53
2021/04/06 08:46:27;;;;;;;;;;;24.00;48.10;;;;;;5092749;28;19912;-53
2021/04/06 08:48:56;;;;;;;;;;;24.00;48.00;;;;;;5092776;28;19908;-53
2021/04/06 08:51:38;;;;;;;;;;;24.00;48.00;;;;;;5092791;28;19935;-53
2021/04/06 08:54:05;;;;;;;;;;;24.10;48.10;;;;;;5092363;28;19912;-53
2021/04/06 08:56:34;;;;;;;;;;;24.10;48.00;;;;;;5093130;28;19915;-53
2021/04/06 08:59:32;;;;;;;;;;;24.20;48.00;;;;;;5074298;28;19923;-53
2021/04/06 09:02:04;;;;;;;;;;;24.20;48.00;;;;;;5029949;28;20007;-53
2021/04/06 09:04:30;;;;;;;;;;;24.20;47.90;;;;;;5030193;28;19928;-53
2021/04/06 09:06:56;;;;;;;;;;;24.30;47.90;;;;;;5013829;28;19909;-53
2021/04/06 09:09:23;;;;;;;;;;;24.30;47.90;;;;;;5013664;28;19913;-53
2021/04/06 09:11:50;;;;;;;;;;;24.30;47.90;;;;;;5029739;28;20480;-52
2021/04/06 09:14:16;;;;;;;;;;;24.40;48.50;;;;;;5013241;28;19913;-53
2021/04/06 09:16:42;;;;;;;;;;;24.40;47.80;;;;;;5030039;28;20381;-53
2021/04/06 09:19:12;;;;;;;;;;;24.40;47.80;;;;;;5029667;28;19915;-52
2021/04/06 09:21:40;;;;;;;;;;;24.50;47.80;;;;;;5029684;28;19921;-54
2021/04/06 09:24:08;;;;;;;;;;;24.50;47.80;;;;;;5029482;28;20279;-52
2021/04/06 09:26:34;;;;;;;;;;;24.60;47.70;;;;;;5030101;28;19913;-53
2021/04/06 09:29:08;;;;;;;;;;;24.60;47.70;;;;;;5028758;28;19940;-53
2021/04/06 09:31:44;;;;;;;;;;;24.70;47.80;;;;;;5028910;28;19935;-52
2021/04/06 09:34:12;;;;;;;;;;;24.70;47.70;;;;;;5029210;28;20342;-52
2021/04/06 09:36:38;;;;;;;;;;;24.80;47.70;;;;;;5012853;28;20310;-53
2021/04/06 09:39:05;;;;;;;;;;;24.80;47.60;;;;;;5080038;28;19915;-53
2021/04/06 09:41:34;;;;;;;;;;;24.90;47.60;;;;;;5092061;28;19912;-53
2021/04/06 09:44:04;;;;;;;;;;;24.90;47.50;;;;;;5091731;28;19919;-53
2021/04/06 09:46:34;;;;;;;;;;;24.90;47.50;;;;;;5092104;28;20808;-54
2021/04/06 09:49:00;;;;;;;;;;;25.00;47.50;;;;;;5092225;28;19912;-52
2021/04/06 09:51:27;;;;;;;;;;;25.00;47.50;;;;;;5095355;28;19947;-54
2021/04/06 09:53:53;;;;;;;;;;;25.10;47.50;;;;;;5096118;28;19908;-53
2021/04/06 09:56:19;;;;;;;;;;;25.10;47.40;;;;;;5096329;28;19916;-53
2021/04/06 09:58:46;;;;;;;;;;;25.10;47.40;;;;;;5109662;28;19914;-53
2021/04/06 10:01:23;;;;;;;;;;;25.20;47.30;;;;;;5116410;28;19962;-52
2021/04/06 10:03:53;;;;;;;;;;;25.20;47.30;;;;;;5098054;28;19911;-53
2021/04/06 10:06:19;;;;;;;;;;;25.30;47.30;;;;;;5098222;28;20387;-54
2021/04/06 10:08:45;;;;;;;;;;;25.30;47.20;;;;;;5116301;28;19998;-52
2021/04/06 10:11:21;;;;;;;;;;;25.40;47.20;;;;;;5115894;28;19915;-53
2021/04/06 10:13:47;;;;;;;;;;;25.40;47.10;;;;;;5114983;28;20325;-53
2021/04/06 10:16:16;;;;;;;;;;;25.50;47.10;;;;;;5097385;28;20260;-53
2021/04/06 10:18:43;;;;;;;;;;;25.50;47.00;;;;;;5115574;28;19916;-54
2021/04/06 10:21:16;;;;;;;;;;;25.60;46.90;;;;;;5116359;28;20333;-53
2021/04/06 10:23:42;;;;;;;;;;;25.60;46.80;;;;;;5115631;28;19931;-53
2021/04/06 10:26:19;;;;;;;;;;;25.70;46.80;;;;;;5097411;28;19920;-53
2021/04/06 10:28:45;;;;;;;;;;;25.70;46.70;;;;;;5115888;28;19919;-53
2021/04/06 10:31:11;;;;;;;;;;;25.80;46.70;;;;;;5115549;28;19908;-53
2021/04/06 10:33:40;;;;;;;;;;;25.90;46.60;;;;;;5115498;28;20296;-53
2021/04/06 10:36:08;;;;;;;;;;;26.00;46.50;;;;;;5115561;28;19964;-53
2021/04/06 10:38:35;;;;;;;;;;;26.10;46.30;;;;;;5115507;28;20355;-53
2021/04/06 10:41:01;;;;;;;;;;;26.10;46.10;;;;;;5115247;28;19912;-53
2021/04/06 10:43:27;;;;;;;;;;;26.10;46.00;;;;;;5115659;28;20361;-53
2021/04/06 10:46:04;;;;;;;;;;;26.20;45.90;;;;;;5115338;28;19916;-53
2021/04/06 10:48:31;;;;;;;;;;;26.30;45.80;;;;;;5115464;28;19916;-53
2021/04/06 10:50:58;;;;;;;;;;;26.40;45.70;;;;;;5115494;28;19907;-54
2021/04/06 10:53:38;;;;;;;;;;;26.50;45.70;;;;;;5115365;28;20405;-53
2021/04/06 10:56:33;;;;;;;;;;;26.50;45.60;;;;;;5115234;28;19918;-52
2021/04/06 10:59:09;;;;;;;;;;;26.60;45.60;;;;;;5097531;28;19915;-52
2021/04/06 11:01:46;;;;;;;;;;;26.70;45.50;;;;;;5090534;28;20377;-52
2021/04/06 11:04:12;;;;;;;;;;;26.70;45.40;;;;;;5094650;28;20281;-52
2021/04/06 11:06:39;;;;;;;;;;;26.80;45.30;;;;;;5076625;28;19912;-52
2021/04/06 11:09:15;;;;;;;;;;;26.90;45.40;;;;;;5111824;28;19907;-53
2021/04/06 11:11:42;;;;;;;;;;;27.00;45.10;;;;;;5114707;28;19912;-53
2021/04/06 11:14:09;;;;;;;;;;;27.10;45.00;;;;;;5115167;28;19908;-54
2021/04/06 11:16:37;;;;;;;;;;;27.20;44.70;;;;;;5114442;28;20452;-54
2021/04/06 11:19:07;;;;;;;;;;;27.30;44.40;;;;;;5114236;28;19918;-53
2021/04/06 11:21:41;;;;;;;;;;;27.30;44.30;;;;;;5114370;28;19915;-54
2021/04/06 11:24:07;;;;;;;;;;;27.40;44.20;;;;;;5113418;28;19920;-54
2021/04/06 11:26:34;;;;;;;;;;;27.40;44.10;;;;;;5095844;28;20357;-54
2021/04/06 11:29:00;;;;;;;;;;;27.40;43.80;;;;;;5113778;28;19932;-54
2021/04/06 11:31:26;;;;;;;;;;;27.40;43.60;;;;;;5095864;28;19956;-52
2021/04/06 11:33:52;;;;;;;;;;;27.40;43.60;;;;;;5113862;28;20674;-54
2021/04/06 11:36:18;;;;;;;;;;;27.30;43.10;;;;;;5113658;28;19943;-56
2021/04/06 11:38:45;;;;;;;;;;;27.30;42.90;;;;;;5114077;28;19918;-55
2021/04/06 11:41:11;;;;;;;;;;;27.30;43.00;;;;;;5114156;28;19998;-57
2021/04/06 11:43:36;;;;;;;;;;;27.20;43.30;;;;;;5114200;28;19961;-55
2021/04/06 11:46:02;;;;;;;;;;;27.20;43.10;;;;;;5113813;28;19916;-56
2021/04/06 11:48:29;;;;;;;;;;;27.10;43.00;;;;;;5114137;28;19911;-55
2021/04/06 11:50:55;;;;;;;;;;;27.10;42.90;;;;;;5113831;28;19908;-55
2021/04/06 11:53:21;;;;;;;;;;;27.00;42.90;;;;;;5113992;28;19912;-55
2021/04/06 11:55:47;;;;;;;;;;;27.00;42.80;;;;;;5113860;28;19918;-55
2021/04/06 11:58:13;;;;;;;;;;;26.90;43.10;;;;;;5113531;28;19919;-55
2021/04/06 12:00:39;;;;;;;;;;;26.90;43.30;;;;;;5094847;28;19908;-55
2021/04/06 12:03:05;;;;;;;;;;;26.90;43.50;;;;;;5113681;28;19959;-55
2021/04/06 12:05:30;;;;;;;;;;;26.90;43.40;;;;;;5113940;28;20380;-56
2021/04/06 12:07:56;;;;;;;;;;;26.90;43.60;;;;;;5095720;28;20433;-56
2021/04/06 12:10:23;;;;;;;;;;;27.00;44.30;;;;;;5095581;28;19916;-54
2021/04/06 12:12:49;;;;;;;;;;;27.00;43.70;;;;;;5113714;28;19956;-54
2021/04/06 12:15:15;;;;;;;;;;;27.00;43.50;;;;;;5113435;28;19912;-53
2021/04/06 12:17:41;;;;;;;;;;;27.10;43.70;;;;;;5113679;28;19907;-53
2021/04/06 12:20:07;;;;;;;;;;;27.10;43.60;;;;;;5113512;28;19912;-53
2021/04/06 12:22:34;;;;;;;;;;;27.10;43.60;;;;;;5114213;28;20375;-53
2021/04/06 12:25:00;;;;;;;;;;;27.10;43.40;;;;;;5113162;28;19943;-54
2021/04/06 12:27:26;;;;;;;;;;;27.10;43.30;;;;;;5113613;28;19996;-53
2021/04/06 12:29:52;;;;;;;;;;;27.20;43.40;;;;;;5113400;28;19916;-53
2021/04/06 12:32:18;;;;;;;;;;;27.20;43.40;;;;;;5113230;28;19908;-53
2021/04/06 12:34:44;;;;;;;;;;;27.20;43.50;;;;;;5112921;28;19916;-54
2021/04/06 12:37:10;;;;;;;;;;;27.20;43.50;;;;;;5094837;28;19977;-57
2021/04/06 12:39:35;;;;;;;;;;;27.20;43.60;;;;;;5094856;28;20385;-57
2021/04/06 12:42:02;;;;;;;;;;;27.20;43.60;;;;;;5112951;28;19911;-57
2021/04/06 12:44:27;;;;;;;;;;;27.20;43.50;;;;;;5112797;28;19919;-56
2021/04/06 12:46:53;;;;;;;;;;;27.20;43.50;;;;;;5112945;28;20349;-56
2021/04/06 12:49:19;;;;;;;;;;;27.30;43.70;;;;;;5108163;28;20377;-56
2021/04/06 12:51:45;;;;;;;;;;;27.30;43.60;;;;;;5092560;28;20358;-55
2021/04/06 12:54:11;;;;;;;;;;;27.30;43.60;;;;;;5092528;28;19918;-57
2021/04/06 12:56:37;;;;;;;;;;;27.30;43.60;;;;;;5092477;28;19912;-55
2021/04/06 12:59:03;;;;;;;;;;;27.30;43.70;;;;;;5074882;28;19909;-58
2021/04/06 13:01:29;;;;;;;;;;;27.30;43.40;;;;;;5092651;28;20335;-56
2021/04/06 13:03:55;;;;;;;;;;;27.30;43.30;;;;;;5092778;28;20023;-56
2021/04/06 13:06:21;;;;;;;;;;;27.30;43.50;;;;;;5092205;28;20006;-56
2021/04/06 13:08:46;;;;;;;;;;;27.30;42.90;;;;;;5073895;28;19966;-54
2021/04/06 13:11:12;;;;;;;;;;;27.30;43.00;;;;;;5091948;28;19912;-53
2021/04/06 13:13:38;;;;;;;;;;;27.30;43.10;;;;;;5092092;28;19915;-53
2021/04/06 13:16:04;;;;;;;;;;;27.30;43.20;;;;;;5091995;28;20332;-53
2021/04/06 13:18:31;;;;;;;;;;;27.30;43.20;;;;;;5091994;28;19912;-51
2021/04/06 13:20:57;;;;;;;;;;;27.30;43.20;;;;;;5091925;28;20306;-52
2021/04/06 13:23:24;;;;;;;;;;;27.30;43.20;;;;;;5092003;28;20388;-52
2021/04/06 13:25:51;;;;;;;;;;;27.30;43.20;;;;;;5094314;28;19928;-52
2021/04/06 13:28:17;;;;;;;;;;;27.30;43.30;;;;;;5077788;28;20340;-52
2021/04/06 13:30:43;;;;;;;;;;;27.40;43.30;;;;;;5077856;28;19912;-51
2021/04/06 13:33:09;;;;;;;;;;;27.40;43.30;;;;;;5077933;28;19912;-53
2021/04/06 13:35:36;;;;;;;;;;;27.40;43.30;;;;;;5077492;28;19957;-52
2021/04/06 13:38:03;;;;;;;;;;;27.40;43.30;;;;;;5095664;28;19955;-52
2021/04/06 13:40:29;;;;;;;;;;;27.40;43.30;;;;;;5095645;28;19965;-52
2021/04/06 13:42:55;;;;;;;;;;;27.40;43.30;;;;;;5096398;28;19912;-53
2021/04/06 13:45:23;;;;;;;;;;;27.40;43.20;;;;;;5096235;28;19916;-52
2021/04/06 13:47:52;;;;;;;;;;;27.40;43.20;;;;;;5096343;28;19912;-53
2021/04/06 13:50:18;;;;;;;;;;;27.40;43.20;;;;;;5096318;28;19970;-52
2021/04/06 13:52:44;;;;;;;;;;;27.40;43.30;;;;;;5096221;28;20369;-52
2021/04/06 13:55:11;;;;;;;;;;;27.50;43.30;;;;;;5096325;28;19923;-52
2021/04/06 13:57:37;;;;;;;;;;;27.50;43.20;;;;;;5096083;28;19995;-52
2021/04/06 14:00:07;;;;;;;;;;;27.50;43.10;;;;;;5077944;28;19919;-52
2021/04/06 14:02:37;;;;;;;;;;;27.50;43.00;;;;;;5095949;28;19912;-52
2021/04/06 14:05:04;;;;;;;;;;;27.40;42.70;;;;;;5096100;28;19916;-52
2021/04/06 14:07:29;;;;;;;;;;;27.40;42.70;;;;;;5095933;28;19908;-52
2021/04/06 14:09:55;;;;;;;;;;;27.40;42.80;;;;;;5095867;28;19919;-52
2021/04/06 14:12:21;;;;;;;;;;;27.40;42.90;;;;;;5077787;28;20061;-54
2021/04/06 14:14:47;;;;;;;;;;;27.40;42.90;;;;;;5095891;28;19995;-55
2021/04/06 14:17:13;;;;;;;;;;;27.40;42.80;;;;;;5095604;28;19920;-52
2021/04/06 14:19:39;;;;;;;;;;;27.40;42.90;;;;;;5095836;28;19912;-53
2021/04/06 14:22:04;;;;;;;;;;;27.30;42.90;;;;;;5077695;28;20272;-52
2021/04/06 14:24:31;;;;;;;;;;;27.30;42.90;;;;;;5077166;28;19928;-52